createdAt,value
2022-08-05T00:02:23.177Z,41.16
2022-08-05T00:04:55.516Z,41.21
2022-08-05T00:07:59.058Z,41.26
2022-08-05T00:10:12.341Z,41.36
2022-08-05T00:12:56.072Z,41.18
2022-08-05T00:15:55.069Z,41.41
2022-08-05T00:18:21.398Z,41.42
2022-08-05T00:20:50.998Z,41.51
2022-08-05T00:23:44.702Z,41.53
2022-08-05T00:26:07.735Z,41.51
2022-08-05T00:28:36.614Z,41.71
2022-08-05T00:31:05.669Z,41.66
2022-08-05T00:34:54.549Z,41.68
2022-08-05T00:37:13.139Z,41.75
2022-08-05T00:39:13.782Z,41.72
2022-08-05T00:41:55.162Z,41.83
2022-08-05T00:44:30.392Z,42.04
2022-08-05T00:47:02.171Z,42.05
2022-08-05T00:49:44.665Z,42.05
2022-08-05T00:52:28.277Z,42.35
2022-08-05T00:54:56.625Z,42.12
2022-08-05T00:57:25.451Z,42.28
2022-08-05T00:59:59.410Z,42.45
2022-08-05T01:02:26.913Z,42.49
2022-08-05T01:04:54.431Z,42.44
2022-08-05T01:07:22.022Z,42.56
2022-08-05T01:09:59.629Z,42.57
2022-08-05T01:12:29.714Z,42.65
2022-08-05T01:15:35.828Z,42.75
2022-08-05T01:18:03.671Z,42.85
2022-08-05T01:20:44.810Z,42.92
2022-08-05T01:23:44.634Z,43.07
2022-08-05T01:26:32.955Z,43.07
2022-08-05T01:29:06.288Z,43.22
2022-08-05T01:31:44.581Z,43.13
2022-08-05T01:34:18.165Z,43.36
2022-08-05T01:37:09.746Z,43.39
2022-08-05T01:39:59.064Z,43.46
2022-08-05T01:42:29.583Z,43.57
2022-08-05T01:45:02.049Z,43.48
2022-08-05T01:47:39.612Z,43.59
2022-08-05T01:50:29.650Z,43.78
2022-08-05T01:53:02.826Z,43.74
2022-08-05T01:55:36.200Z,43.91
2022-08-05T01:58:15.870Z,43.91
2022-08-05T02:00:49.354Z,44.09
2022-08-05T02:03:31.727Z,43.95
2022-08-05T02:06:24.075Z,44.09
2022-08-05T02:08:58.467Z,44.28
2022-08-05T02:11:37.538Z,44.29
2022-08-05T02:14:17.523Z,44.27
2022-08-05T02:16:54.634Z,44.44
2022-08-05T02:19:27.959Z,44.52
2022-08-05T02:22:09.919Z,44.65
2022-08-05T02:25:00.080Z,44.59
2022-08-05T02:27:58.467Z,44.84
2022-08-05T02:30:19.414Z,44.71
2022-08-05T02:32:50.611Z,44.95
2022-08-05T02:35:28.099Z,44.92
2022-08-05T02:38:02.828Z,45.05
2022-08-05T02:40:32.259Z,45.16
2022-08-05T02:43:01.086Z,45.15
2022-08-05T02:45:52.764Z,45.26
2022-08-05T02:48:19.167Z,45.36
2022-08-05T02:50:51.433Z,45.37
2022-08-05T02:53:21.960Z,45.51
2022-08-05T02:55:59.584Z,45.56
2022-08-05T02:58:30.295Z,45.62
2022-08-05T03:01:01.955Z,45.69
2022-08-05T03:03:33.861Z,45.78
2022-08-05T03:06:55.218Z,45.85
2022-08-05T03:08:53.400Z,45.94
2022-08-05T03:11:57.284Z,45.98
2022-08-05T03:14:13.300Z,46.08
2022-08-05T03:16:41.327Z,46.12
2022-08-05T03:19:17.270Z,46.19
2022-08-05T03:21:56.726Z,46.32
2022-08-05T03:24:30.485Z,46.29
2022-08-05T03:27:00.178Z,46.41
2022-08-05T03:29:45.855Z,46.51
2022-08-05T03:32:16.834Z,46.56
2022-08-05T03:34:51.110Z,46.58
2022-08-05T03:37:21.142Z,46.62
2022-08-05T03:40:01.436Z,46.67
2022-08-05T03:42:32.829Z,46.76
2022-08-05T03:45:22.057Z,46.85
2022-08-05T03:47:51.343Z,46.99
2022-08-05T03:50:20.381Z,46.95
2022-08-05T03:54:58.744Z,47.10
2022-08-05T03:56:10.514Z,47.14
2022-08-05T03:58:43.093Z,47.23
2022-08-05T04:01:15.034Z,47.30
2022-08-05T04:04:09.048Z,47.25
2022-08-05T04:06:35.289Z,47.28
2022-08-05T04:09:05.888Z,47.39
2022-08-05T04:11:47.713Z,47.32
2022-08-05T04:14:30.115Z,47.41
2022-08-05T04:17:03.101Z,47.52
2022-08-05T04:19:30.827Z,47.68
2022-08-05T04:22:09.469Z,47.45
2022-08-05T04:24:43.998Z,47.60
2022-08-05T04:27:15.412Z,47.58
2022-08-05T04:29:43.065Z,47.65
2022-08-05T04:32:10.576Z,47.64
2022-08-05T04:34:43.097Z,47.82
2022-08-05T04:37:11.207Z,47.85
2022-08-05T04:39:39.241Z,47.75
2022-08-05T04:42:08.068Z,47.74
2022-08-05T04:44:36.877Z,47.84
2022-08-05T04:47:08.989Z,47.91
2022-08-05T04:50:02.450Z,47.95
2022-08-05T04:52:28.395Z,48.02
2022-08-05T04:54:57.348Z,48.03
2022-08-05T04:57:29.219Z,48.00
2022-08-05T05:00:06.456Z,48.01
2022-08-05T05:02:41.923Z,47.90
2022-08-05T05:05:26.250Z,48.10
2022-08-05T05:08:02.634Z,47.99
2022-08-05T05:10:33.295Z,47.98
2022-08-05T05:13:04.262Z,47.90
2022-08-05T05:15:57.197Z,47.95
2022-08-05T05:18:28.783Z,47.93
2022-08-05T05:21:03.757Z,47.97
2022-08-05T05:23:39.154Z,47.86
2022-08-05T05:26:28.370Z,47.97
2022-08-05T05:29:00.490Z,47.94
2022-08-05T05:31:35.976Z,47.90
2022-08-05T05:34:01.945Z,47.83
2022-08-05T05:36:31.803Z,47.87
2022-08-05T05:38:59.637Z,47.68
2022-08-05T05:41:40.761Z,47.87
2022-08-05T05:44:35.545Z,47.79
2022-08-05T05:46:58.275Z,47.70
2022-08-05T05:49:26.229Z,47.75
2022-08-05T05:51:55.188Z,47.59
2022-08-05T05:54:22.758Z,47.67
2022-08-05T05:57:13.601Z,47.56
2022-08-05T05:59:48.790Z,47.47
2022-08-05T06:02:17.122Z,47.33
2022-08-05T06:05:01.353Z,47.50
2022-08-05T06:07:41.819Z,47.32
2022-08-05T06:10:10.742Z,47.18
2022-08-05T06:12:42.357Z,47.41
2022-08-05T06:15:16.497Z,47.20
2022-08-05T06:17:53.111Z,46.97
2022-08-05T06:20:21.712Z,47.07
2022-08-05T06:22:49.414Z,46.99
2022-08-05T06:25:25.068Z,46.95
2022-08-05T06:28:11.224Z,46.87
2022-08-05T06:30:48.837Z,46.81
2022-08-05T06:33:19.464Z,46.67
2022-08-05T06:36:07.803Z,46.55
2022-08-05T06:38:37.709Z,46.67
2022-08-05T06:41:08.188Z,46.48
2022-08-05T06:43:57.634Z,46.63
2022-08-05T06:46:29.914Z,46.47
2022-08-05T06:49:00.850Z,46.33
2022-08-05T06:51:30.780Z,46.47
2022-08-05T06:54:01.837Z,46.18
2022-08-05T06:56:33.849Z,46.31
2022-08-05T06:59:09.401Z,46.28
2022-08-05T07:01:40.789Z,46.15
2022-08-05T07:04:10.787Z,45.94
2022-08-05T07:06:41.752Z,46.23
2022-08-05T07:09:10.013Z,45.91
2022-08-05T07:11:39.947Z,45.92
2022-08-05T07:14:29.464Z,45.66
2022-08-05T07:17:59.876Z,45.60
2022-08-05T07:20:32.508Z,45.41
2022-08-05T07:22:38.460Z,45.37
2022-08-05T07:25:23.908Z,45.38
2022-08-05T07:28:03.879Z,45.24
2022-08-05T07:30:40.125Z,45.36
2022-08-05T07:33:15.911Z,44.96
2022-08-05T07:36:02.194Z,45.12
2022-08-05T07:38:43.231Z,45.03
2022-08-05T07:42:12.865Z,44.79
2022-08-05T07:44:14.513Z,45.02
2022-08-05T07:46:50.609Z,44.76
2022-08-05T07:49:20.126Z,44.80
2022-08-05T07:51:52.954Z,44.60
2022-08-05T07:54:30.943Z,44.61
2022-08-05T07:57:13.950Z,44.50
2022-08-05T07:59:49.186Z,44.43
2022-08-05T08:02:17.920Z,44.12
2022-08-05T08:04:48.492Z,44.19
2022-08-05T08:07:22.673Z,44.12
2022-08-05T08:09:54.949Z,44.09
2022-08-05T08:12:33.507Z,44.04
2022-08-05T08:15:13.990Z,44.17
2022-08-05T08:17:49.934Z,44.00
2022-08-05T08:20:59.778Z,43.63
2022-08-05T08:24:01.379Z,43.43
2022-08-05T08:26:02.833Z,43.40
2022-08-05T08:28:36.530Z,43.49
2022-08-05T08:31:10.075Z,43.39
2022-08-05T08:33:44.678Z,43.48
2022-08-05T08:36:37.449Z,43.03
2022-08-05T08:39:00.705Z,42.95
2022-08-05T08:41:52.612Z,42.94
2022-08-05T08:45:19.601Z,42.73
2022-08-05T08:47:46.912Z,42.61
2022-08-05T08:50:30.987Z,42.62
2022-08-05T08:53:02.003Z,42.38
2022-08-05T08:56:02.913Z,42.25
2022-08-05T08:58:36.901Z,42.07
2022-08-05T09:01:08.673Z,41.86
2022-08-05T09:03:54.421Z,41.68
2022-08-05T09:06:29.685Z,41.45
2022-08-05T09:09:00.550Z,40.99
2022-08-05T09:11:53.125Z,40.84
2022-08-05T09:14:58.277Z,40.80
2022-08-05T09:17:15.938Z,40.77
2022-08-05T09:20:04.893Z,40.63
2022-08-05T09:23:07.938Z,40.65
2022-08-05T09:26:03.543Z,40.45
2022-08-05T09:28:32.032Z,40.20
2022-08-05T09:31:22.408Z,40.19
2022-08-05T09:34:02.585Z,39.83
2022-08-05T09:36:54.989Z,39.48
2022-08-05T09:39:27.792Z,39.26
2022-08-05T09:42:11.390Z,38.87
2022-08-05T09:44:50.661Z,38.60
2022-08-05T09:47:21.919Z,38.62
2022-08-05T09:50:00.576Z,38.55
2022-08-05T09:52:32.068Z,38.35
2022-08-05T09:55:55.232Z,38.03
2022-08-05T09:57:54.752Z,37.61
2022-08-05T10:00:32.079Z,37.66
2022-08-05T10:03:09.915Z,37.39
2022-08-05T10:05:38.374Z,37.35
2022-08-05T10:08:34.677Z,36.95
2022-08-05T10:10:55.017Z,36.75
2022-08-05T10:13:45.779Z,36.10
2022-08-05T10:17:01.146Z,36.12
2022-08-05T10:20:02.714Z,36.17
2022-08-05T10:22:30.103Z,36.01
2022-08-05T10:25:02.506Z,36.03
2022-08-05T10:28:09.689Z,35.68
2022-08-05T10:31:19.922Z,35.77
2022-08-05T10:33:06.796Z,35.40
2022-08-05T10:35:40.632Z,34.89
2022-08-05T10:38:14.098Z,34.65
2022-08-05T10:40:57.828Z,34.66
2022-08-05T10:43:59.323Z,34.52
2022-08-05T10:46:54.376Z,34.31
2022-08-05T10:49:33.510Z,34.33
2022-08-05T10:52:49.537Z,33.79
2022-08-05T10:55:19.250Z,33.44
2022-08-05T10:57:46.743Z,33.24
2022-08-05T11:00:23.133Z,33.35
2022-08-05T11:03:23.461Z,33.46
2022-08-05T11:06:15.603Z,32.91
2022-08-05T11:09:18.611Z,32.43
2022-08-05T11:11:54.835Z,32.47
2022-08-05T11:17:59.100Z,31.76
2022-08-05T11:20:46.473Z,31.80
2022-08-05T11:23:33.657Z,31.57
2022-08-05T11:26:28.049Z,31.53
2022-08-05T11:28:58.717Z,31.32
2022-08-05T11:31:58.122Z,31.12
2022-08-05T11:34:51.350Z,30.83
2022-08-05T11:38:26.664Z,30.37
2022-08-05T11:41:34.591Z,29.90
2022-08-05T11:44:04.681Z,29.88
2022-08-05T11:46:58.188Z,29.86
2022-08-05T11:49:26.076Z,29.49
2022-08-05T11:51:53.927Z,29.53
2022-08-05T11:54:38.340Z,29.24
2022-08-05T11:57:24.966Z,28.51
2022-08-05T11:59:57.376Z,29.04
2022-08-05T12:02:30.190Z,28.34
2022-08-05T12:05:07.360Z,28.50
2022-08-05T12:08:08.027Z,28.46
2022-08-05T12:10:43.336Z,28.11
2022-08-05T12:13:17.431Z,28.32
2022-08-05T12:15:56.142Z,27.96
2022-08-05T12:18:40.591Z,27.73
2022-08-05T12:21:12.487Z,27.58
2022-08-05T12:23:42.914Z,27.50
2022-08-05T12:26:10.893Z,27.55
2022-08-05T12:28:38.698Z,27.53
2022-08-05T12:31:06.213Z,27.49
2022-08-05T12:33:36.430Z,27.44
2022-08-05T12:36:08.366Z,26.92
2022-08-05T12:38:40.401Z,26.72
2022-08-05T12:41:13.368Z,26.81
2022-08-05T12:44:00.299Z,26.49
2022-08-05T12:46:31.423Z,26.07
2022-08-05T12:49:08.412Z,26.25
2022-08-05T12:52:12.569Z,25.93
2022-08-05T12:54:41.193Z,26.15
2022-08-05T12:57:12.962Z,25.84
2022-08-05T13:01:58.099Z,25.55
2022-08-05T13:02:47.441Z,25.43
2022-08-05T13:05:24.702Z,25.36
2022-08-05T13:08:04.856Z,25.53
2022-08-05T13:10:50.382Z,25.05
2022-08-05T13:14:05.201Z,24.57
2022-08-05T13:16:15.350Z,24.43
2022-08-05T13:19:01.486Z,24.40
2022-08-05T13:21:38.046Z,23.87
2022-08-05T13:24:36.559Z,23.85
2022-08-05T13:27:04.688Z,23.82
2022-08-05T13:29:37.493Z,23.74
2022-08-05T13:32:05.757Z,23.72
2022-08-05T13:34:33.761Z,23.73
2022-08-05T13:37:05.584Z,23.51
2022-08-05T13:40:16.257Z,23.36
2022-08-05T13:42:23.540Z,23.08
2022-08-05T13:44:54.510Z,23.05
2022-08-05T13:47:36.040Z,22.95
2022-08-05T13:50:16.487Z,23.02
2022-08-05T13:52:44.399Z,23.13
2022-08-05T13:55:41.956Z,23.04
2022-08-05T13:58:08.059Z,22.98
2022-08-05T14:00:38.647Z,22.61
2022-08-05T14:03:11.719Z,22.43
2022-08-05T14:06:24.832Z,21.92
2022-08-05T14:08:28.019Z,22.05
2022-08-05T14:11:19.822Z,22.01
2022-08-05T14:13:48.216Z,22.41
2022-08-05T14:16:16.823Z,22.10
2022-08-05T14:18:44.805Z,22.05
2022-08-05T14:22:07.945Z,22.05
2022-08-05T14:24:00.002Z,21.47
2022-08-05T14:26:36.879Z,21.59
2022-08-05T14:29:06.453Z,21.84
2022-08-05T14:31:54.494Z,21.96
2022-08-05T14:34:35.222Z,22.04
2022-08-05T14:37:05.190Z,22.20
2022-08-05T14:39:49.452Z,21.88
2022-08-05T14:42:20.765Z,22.00
2022-08-05T14:44:49.594Z,22.12
2022-08-05T14:48:03.602Z,21.79
2022-08-05T14:50:17.181Z,21.98
2022-08-05T14:52:53.614Z,21.49
2022-08-05T14:55:38.356Z,21.19
2022-08-05T14:58:10.827Z,21.00
2022-08-05T15:00:59.104Z,20.96
2022-08-05T15:03:33.582Z,21.09
2022-08-05T15:06:07.999Z,20.54
2022-08-05T15:08:57.914Z,20.18
2022-08-05T15:11:51.844Z,19.84
2022-08-05T15:14:33.367Z,19.86
2022-08-05T15:17:05.287Z,19.77
2022-08-05T15:19:37.638Z,19.69
2022-08-05T15:22:08.656Z,19.54
2022-08-05T15:24:36.563Z,19.56
2022-08-05T15:27:09.168Z,19.11
2022-08-05T15:29:42.134Z,18.95
2022-08-05T15:32:09.911Z,18.87
2022-08-05T15:34:37.461Z,18.80
2022-08-05T15:37:06.821Z,18.44
2022-08-05T15:41:00.503Z,18.31
2022-08-05T15:42:55.592Z,18.44
2022-08-05T15:45:18.684Z,18.38
2022-08-05T15:47:50.626Z,18.21
2022-08-05T15:50:21.907Z,18.12
2022-08-05T15:52:55.292Z,17.89
2022-08-05T15:55:24.561Z,17.76
2022-08-05T15:57:52.690Z,17.74
2022-08-05T16:00:25.940Z,17.75
2022-08-05T16:03:00.421Z,17.81
2022-08-05T16:05:28.629Z,17.63
2022-08-05T16:07:57.217Z,17.59
2022-08-05T16:10:25.566Z,17.39
2022-08-05T16:12:55.974Z,17.37
2022-08-05T16:15:23.999Z,17.26
2022-08-05T16:17:59.843Z,17.14
2022-08-05T16:20:27.992Z,17.05
2022-08-05T16:22:55.813Z,17.00
2022-08-05T16:25:32.235Z,16.80
2022-08-05T16:28:09.744Z,16.87
2022-08-05T16:30:38.060Z,16.77
2022-08-05T16:33:06.354Z,16.57
2022-08-05T16:35:41.954Z,16.61
2022-08-05T16:38:24.095Z,16.60
2022-08-05T16:41:00.043Z,16.26
2022-08-05T16:43:34.108Z,16.56
2022-08-05T16:46:12.891Z,16.50
2022-08-05T16:48:52.143Z,16.53
2022-08-05T16:51:20.626Z,16.70
2022-08-05T16:54:02.907Z,16.65
2022-08-05T16:56:35.068Z,16.77
2022-08-05T16:59:10.760Z,16.82
2022-08-05T17:01:53.506Z,16.43
2022-08-05T17:04:27.759Z,16.78
2022-08-05T17:07:03.534Z,16.72
2022-08-05T17:09:58.351Z,16.65
2022-08-05T17:12:51.514Z,16.61
2022-08-05T17:15:15.698Z,16.65
2022-08-05T17:17:55.257Z,16.74
2022-08-05T17:20:23.082Z,16.66
2022-08-05T17:22:55.688Z,16.71
2022-08-05T17:25:39.499Z,16.89
2022-08-05T17:28:09.819Z,17.30
2022-08-05T17:30:50.217Z,17.19
2022-08-05T17:33:20.393Z,17.57
2022-08-05T17:36:07.947Z,17.70
2022-08-05T17:38:35.543Z,18.04
2022-08-05T17:41:03.084Z,18.44
2022-08-05T17:43:47.304Z,18.91
2022-08-05T17:46:20.181Z,19.35
2022-08-05T17:48:48.858Z,19.56
2022-08-05T17:51:21.761Z,19.87
2022-08-05T17:53:50.915Z,20.28
2022-08-05T17:56:22.780Z,20.58
2022-08-05T17:58:51.157Z,20.94
2022-08-05T18:01:20.061Z,21.24
2022-08-05T18:03:58.347Z,21.53
2022-08-05T18:06:31.489Z,21.90
2022-08-05T18:08:59.937Z,22.40
2022-08-05T18:11:33.468Z,22.59
2022-08-05T18:14:13.482Z,22.89
2022-08-05T18:16:51.820Z,23.33
2022-08-05T18:19:22.638Z,23.47
2022-08-05T18:22:09.702Z,23.54
2022-08-05T18:24:39.508Z,23.97
2022-08-05T18:27:16.596Z,24.38
2022-08-05T18:29:53.666Z,24.56
2022-08-05T18:32:28.214Z,24.85
2022-08-05T18:34:57.799Z,25.05
2022-08-05T18:37:34.803Z,25.31
2022-08-05T18:41:50.073Z,25.48
2022-08-05T18:42:58.485Z,25.80
2022-08-05T18:45:26.814Z,26.15
2022-08-05T18:48:11.296Z,26.51
2022-08-05T18:50:55.565Z,26.97
2022-08-05T18:53:29.390Z,27.07
2022-08-05T18:56:02.344Z,27.30
2022-08-05T18:58:39.906Z,27.59
2022-08-05T19:01:10.609Z,27.93
2022-08-05T19:03:53.036Z,28.03
2022-08-05T19:06:34.367Z,28.30
2022-08-05T19:09:11.547Z,28.62
2022-08-05T19:11:59.916Z,28.60
2022-08-05T19:14:37.893Z,29.08
2022-08-05T19:17:14.244Z,29.28
2022-08-05T19:19:46.869Z,29.74
2022-08-05T19:22:17.052Z,29.83
2022-08-05T19:24:56.027Z,30.04
2022-08-05T19:27:27.954Z,30.26
2022-08-05T19:29:58.560Z,30.29
2022-08-05T19:32:27.790Z,30.66
2022-08-05T19:34:58.919Z,30.98
2022-08-05T19:37:47.413Z,31.15
2022-08-05T19:40:24.200Z,31.66
2022-08-05T19:43:00.952Z,31.58
2022-08-05T19:45:36.740Z,31.71
2022-08-05T19:48:06.204Z,31.92
2022-08-05T19:50:35.058Z,31.94
2022-08-05T19:53:10.359Z,32.29
2022-08-05T19:56:15.439Z,32.23
2022-08-05T19:58:28.391Z,32.70
2022-08-05T20:00:56.862Z,32.73
2022-08-05T20:03:26.118Z,32.96
2022-08-05T20:05:56.600Z,33.15
2022-08-05T20:08:25.363Z,33.32
2022-08-05T20:10:53.503Z,33.44
2022-08-05T20:13:29.988Z,33.49
2022-08-05T20:16:09.994Z,33.62
2022-08-05T20:18:38.347Z,33.84
2022-08-05T20:21:07.104Z,33.96
2022-08-05T20:23:39.293Z,34.05
2022-08-05T20:26:19.883Z,33.98
2022-08-05T20:28:50.375Z,34.08
2022-08-05T20:31:36.935Z,34.28
2022-08-05T20:34:11.576Z,34.60
2022-08-05T20:36:43.223Z,34.72
2022-08-05T20:39:16.131Z,34.76
2022-08-05T20:41:46.569Z,34.75
2022-08-05T20:44:29.707Z,35.09
2022-08-05T20:47:00.758Z,35.21
2022-08-05T20:49:28.897Z,35.07
2022-08-05T20:51:57.835Z,35.25
2022-08-05T20:54:55.028Z,35.40
2022-08-05T20:57:42.145Z,35.42
2022-08-05T21:00:20.320Z,35.67
2022-08-05T21:02:56.978Z,35.75
2022-08-05T21:05:24.616Z,35.76
2022-08-05T21:07:52.530Z,36.01
2022-08-05T21:10:21.591Z,36.00
2022-08-05T21:13:08.935Z,35.88
2022-08-05T21:15:37.387Z,36.21
2022-08-05T21:18:04.908Z,36.20
2022-08-05T21:20:32.889Z,36.31
2022-08-05T21:23:01.257Z,36.53
2022-08-05T21:25:34.041Z,36.39
2022-08-05T21:28:03.008Z,36.64
2022-08-05T21:30:31.763Z,36.88
2022-08-05T21:33:01.726Z,36.89
2022-08-05T21:35:55.779Z,37.15
2022-08-05T21:38:19.039Z,37.57
2022-08-05T21:40:46.724Z,37.59
2022-08-05T21:43:24.187Z,37.65
2022-08-05T21:45:57.415Z,38.07
2022-08-05T21:48:28.735Z,38.42
2022-08-05T21:50:56.441Z,38.23
2022-08-05T21:53:27.623Z,38.28
2022-08-05T21:56:05.649Z,38.40
2022-08-05T21:58:42.316Z,38.51
2022-08-05T22:01:24.748Z,38.71
2022-08-05T22:03:53.758Z,38.80
2022-08-05T22:06:35.218Z,38.95
2022-08-05T22:09:13.971Z,39.06
2022-08-05T22:11:47.108Z,39.23
2022-08-05T22:14:32.696Z,39.21
2022-08-05T22:17:05.388Z,39.56
2022-08-05T22:19:57.265Z,39.43
2022-08-05T22:22:28.049Z,39.80
2022-08-05T22:25:17.682Z,39.87
2022-08-05T22:28:08.942Z,40.18
2022-08-05T22:30:55.834Z,40.16
2022-08-05T22:33:57.195Z,40.15
2022-08-05T22:36:14.265Z,40.24
2022-08-05T22:38:48.163Z,40.34
2022-08-05T22:42:05.364Z,40.50
2022-08-05T22:44:07.786Z,40.52
2022-08-05T22:46:39.443Z,40.71
2022-08-05T22:49:12.096Z,40.51
2022-08-05T22:52:05.130Z,40.48
2022-08-05T22:54:28.275Z,40.67
2022-08-05T22:56:56.087Z,40.90
2022-08-05T22:59:46.387Z,40.48
2022-08-05T23:02:13.524Z,40.73
2022-08-05T23:04:51.531Z,40.81
2022-08-05T23:07:21.882Z,41.06
2022-08-05T23:09:58.428Z,41.08
2022-08-05T23:12:33.346Z,41.14
2022-08-05T23:15:08.925Z,41.13
2022-08-05T23:17:37.959Z,41.34
2022-08-05T23:20:25.119Z,41.41
2022-08-05T23:22:55.855Z,41.48
2022-08-05T23:25:53.250Z,41.56
2022-08-05T23:28:12.296Z,41.78
2022-08-05T23:30:43.610Z,41.81
2022-08-05T23:33:16.513Z,41.68
2022-08-05T23:35:56.178Z,41.96
2022-08-05T23:38:25.934Z,42.16
2022-08-05T23:40:53.776Z,42.27
2022-08-05T23:43:25.731Z,42.33
2022-08-05T23:46:19.771Z,42.35
2022-08-05T23:49:01.076Z,42.52
2022-08-05T23:51:53.576Z,42.85
2022-08-05T23:54:30.018Z,42.92
2022-08-05T23:57:03.871Z,42.99
2022-08-05T23:59:37.561Z,43.05
